LOWI/INN METAR and TAF weather

Enter ICAO airport designator
Station Type Date Time Source
LOWI METAR 2020/01/20 18:50 UTC NOAA

LOWI 201850Z VRB02KT 9999 FEW030 M05/M07 Q1043 R08/19//95 NOSIG


Station Type Date Time Source
LOWI Decoded METAR 2020/01/20 18:50 UTC NOAA

Innsbruck-Flughafen, Austria (LOWI) 47-16N 011-21E 593M
Jan 20, 2020 - 01:50 PM EST / 2020.01.20 1850 UTC
Wind: Variable at 2 MPH (2 KT):0
Visibility: greater than 7 mile(s):0
Sky conditions: mostly clear
Temperature: 23 F (-5 C)
Dew Point: 19 F (-7 C)
Relative Humidity: 85%
Pressure (altimeter): 30.80 in. Hg (1043 hPa)
ob: LOWI 201850Z VRB02KT 9999 FEW030 M05/M07 Q1043 R08/19//95 NOSIG
cycle: 19

Station Type Date Time Source
LOWI TAF 2020/01/20 18:21 UTC NOAA

TAF LOWI 201715Z 2018/2118 VRB02KT CAVOK TX03/2114Z TNM08/2107Z

Example: see airport list